METAR Formatted Surface Weather Observation
Issued by NWS

Home | Current Version | Previous Version | Text Only | Print | Product List | Glossary On
Versions: 1
000
SAUS41 KCAR 281216
MTR40B
METAR K40B 281216Z AUTO 00000KT M01/M01 A3002 RMK AO1 SLP187
     T10071006 10001 21015 51007 60000 70010



USA.gov is the U.S. government's official web portal to all federal, state and local government web resources and services.